sensor_id;sensor_type;location;lat;lon;timestamp;pressure;altitude;pressure_sealevel;temperature;humidity
75438;BME280;64015;49.392;15.582;2023-06-26T00:01:44;95923.94;;;13.11;100.00
75438;BME280;64015;49.392;15.582;2023-06-26T00:04:10;95917.41;;;13.03;100.00
75438;BME280;64015;49.392;15.582;2023-06-26T00:06:43;95919.53;;;13.01;100.00
75438;BME280;64015;49.392;15.582;2023-06-26T00:09:13;95920.06;;;12.98;100.00
75438;BME280;64015;49.392;15.582;2023-06-26T00:11:39;95925.66;;;12.96;100.00
75438;BME280;64015;49.392;15.582;2023-06-26T00:14:04;95925.94;;;12.95;100.00
75438;BME280;64015;49.392;15.582;2023-06-26T00:16:30;95925.69;;;12.91;100.00
75438;BME280;64015;49.392;15.582;2023-06-26T00:18:57;95924.13;;;12.90;100.00
75438;BME280;64015;49.392;15.582;2023-06-26T00:21:24;95928.34;;;12.91;100.00
75438;BME280;64015;49.392;15.582;2023-06-26T00:23:51;95925.66;;;12.96;100.00
75438;BME280;64015;49.392;15.582;2023-06-26T00:26:17;95928.41;;;12.81;100.00
75438;BME280;64015;49.392;15.582;2023-06-26T00:28:42;95930.31;;;12.76;100.00
75438;BME280;64015;49.392;15.582;2023-06-26T00:31:13;95930.34;;;12.70;100.00
75438;BME280;64015;49.392;15.582;2023-06-26T00:33:39;95924.03;;;12.66;100.00
75438;BME280;64015;49.392;15.582;2023-06-26T00:36:04;95927.22;;;12.63;100.00
75438;BME280;64015;49.392;15.582;2023-06-26T00:38:31;95922.78;;;12.59;100.00
75438;BME280;64015;49.392;15.582;2023-06-26T00:40:57;95923.84;;;12.53;100.00
75438;BME280;64015;49.392;15.582;2023-06-26T00:43:26;95920.41;;;12.52;100.00
75438;BME280;64015;49.392;15.582;2023-06-26T00:45:51;95924.44;;;12.50;100.00
75438;BME280;64015;49.392;15.582;2023-06-26T00:48:18;95925.22;;;12.50;100.00
75438;BME280;64015;49.392;15.582;2023-06-26T00:50:47;95913.06;;;12.49;100.00
75438;BME280;64015;49.392;15.582;2023-06-26T00:53:13;95924.91;;;12.52;100.00
75438;BME280;64015;49.392;15.582;2023-06-26T00:55:39;95923.13;;;12.47;100.00
75438;BME280;64015;49.392;15.582;2023-06-26T00:58:04;95927.81;;;12.55;100.00
75438;BME280;64015;49.392;15.582;2023-06-26T01:00:31;95932.44;;;12.40;100.00
75438;BME280;64015;49.392;15.582;2023-06-26T01:02:57;95931.66;;;12.34;100.00
75438;BME280;64015;49.392;15.582;2023-06-26T01:05:26;95927.72;;;12.31;100.00
75438;BME280;64015;49.392;15.582;2023-06-26T01:07:52;95932.75;;;12.28;100.00
75438;BME280;64015;49.392;15.582;2023-06-26T01:10:19;95919.03;;;12.21;100.00
75438;BME280;64015;49.392;15.582;2023-06-26T01:12:45;95930.69;;;12.20;100.00
75438;BME280;64015;49.392;15.582;2023-06-26T01:15:11;95928.31;;;12.18;100.00
75438;BME280;64015;49.392;15.582;2023-06-26T01:17:38;95925.13;;;12.16;100.00
75438;BME280;64015;49.392;15.582;2023-06-26T01:20:06;95930.72;;;12.10;100.00
75438;BME280;64015;49.392;15.582;2023-06-26T01:23:00;95923.88;;;12.09;100.00
75438;BME280;64015;49.392;15.582;2023-06-26T01:28:39;95918.28;;;12.15;100.00
75438;BME280;64015;49.392;15.582;2023-06-26T01:31:07;95918.03;;;12.12;100.00
75438;BME280;64015;49.392;15.582;2023-06-26T01:33:33;95917.25;;;12.11;100.00
75438;BME280;64015;49.392;15.582;2023-06-26T01:36:00;95915.34;;;12.17;100.00
75438;BME280;64015;49.392;15.582;2023-06-26T01:38:26;95917.94;;;12.32;100.00
75438;BME280;64015;49.392;15.582;2023-06-26T01:40:55;95906.41;;;12.08;100.00
75438;BME280;64015;49.392;15.582;2023-06-26T01:43:29;95908.03;;;11.99;100.00
75438;BME280;64015;49.392;15.582;2023-06-26T01:46:04;95912.84;;;11.91;100.00
75438;BME280;64015;49.392;15.582;2023-06-26T01:48:42;95914.72;;;11.86;100.00
75438;BME280;64015;49.392;15.582;2023-06-26T01:51:17;95907.59;;;11.81;100.00
75438;BME280;64015;49.392;15.582;2023-06-26T01:53:46;95904.97;;;11.81;100.00
75438;BME280;64015;49.392;15.582;2023-06-26T01:56:16;95908.44;;;11.77;100.00
75438;BME280;64015;49.392;15.582;2023-06-26T01:58:46;95908.88;;;11.89;100.00
75438;BME280;64015;49.392;15.582;2023-06-26T02:01:17;95902.59;;;11.80;100.00
75438;BME280;64015;49.392;15.582;2023-06-26T02:03:43;95905.22;;;11.70;100.00
75438;BME280;64015;49.392;15.582;2023-06-26T02:06:09;95908.69;;;11.65;100.00
75438;BME280;64015;49.392;15.582;2023-06-26T02:08:35;95904.47;;;11.59;100.00
75438;BME280;64015;49.392;15.582;2023-06-26T02:11:01;95897.63;;;11.53;100.00
75438;BME280;64015;49.392;15.582;2023-06-26T02:13:27;95902.88;;;11.63;100.00
75438;BME280;64015;49.392;15.582;2023-06-26T02:15:52;95902.31;;;11.71;100.00
75438;BME280;64015;49.392;15.582;2023-06-26T02:18:18;95904.75;;;11.52;100.00
75438;BME280;64015;49.392;15.582;2023-06-26T02:20:44;95902.94;;;11.43;100.00
75438;BME280;64015;49.392;15.582;2023-06-26T02:23:09;95903.50;;;11.35;100.00
75438;BME280;64015;49.392;15.582;2023-06-26T02:25:35;95902.19;;;11.27;100.00
75438;BME280;64015;49.392;15.582;2023-06-26T02:28:01;95906.97;;;11.30;100.00
75438;BME280;64015;49.392;15.582;2023-06-26T02:30:27;95901.41;;;11.27;100.00
75438;BME280;64015;49.392;15.582;2023-06-26T02:32:53;95906.16;;;11.30;100.00
75438;BME280;64015;49.392;15.582;2023-06-26T02:35:19;95902.72;;;11.29;100.00
75438;BME280;64015;49.392;15.582;2023-06-26T02:37:44;95902.72;;;11.34;100.00
75438;BME280;64015;49.392;15.582;2023-06-26T02:40:10;95905.59;;;11.33;100.00
75438;BME280;64015;49.392;15.582;2023-06-26T02:42:36;95904.03;;;11.37;100.00
75438;BME280;64015;49.392;15.582;2023-06-26T02:45:02;95904.81;;;11.32;100.00
75438;BME280;64015;49.392;15.582;2023-06-26T02:47:28;95901.41;;;11.27;100.00
75438;BME280;64015;49.392;15.582;2023-06-26T02:49:54;95902.50;;;11.20;100.00
75438;BME280;64015;49.392;15.582;2023-06-26T02:52:19;95909.31;;;11.21;100.00
75438;BME280;64015;49.392;15.582;2023-06-26T02:54:45;95907.25;;;11.18;100.00
75438;BME280;64015;49.392;15.582;2023-06-26T02:57:11;95904.84;;;11.17;100.00
75438;BME280;64015;49.392;15.582;2023-06-26T02:59:38;95911.44;;;11.14;100.00
75438;BME280;64015;49.392;15.582;2023-06-26T03:02:04;95905.13;;;11.10;100.00
75438;BME280;64015;49.392;15.582;2023-06-26T03:04:30;95900.38;;;11.12;100.00
75438;BME280;64015;49.392;15.582;2023-06-26T03:06:56;95907.78;;;11.10;100.00
75438;BME280;64015;49.392;15.582;2023-06-26T03:09:21;95899.59;;;11.12;100.00
75438;BME280;64015;49.392;15.582;2023-06-26T03:11:47;95903.53;;;11.14;100.00
75438;BME280;64015;49.392;15.582;2023-06-26T03:14:14;95906.16;;;11.14;100.00
75438;BME280;64015;49.392;15.582;2023-06-26T03:16:40;95905.13;;;11.20;100.00
75438;BME280;64015;49.392;15.582;2023-06-26T03:19:06;95904.59;;;11.18;100.00
75438;BME280;64015;49.392;15.582;2023-06-26T03:21:32;95896.16;;;11.16;100.00
75438;BME280;64015;49.392;15.582;2023-06-26T03:23:58;95908.03;;;11.19;100.00
75438;BME280;64015;49.392;15.582;2023-06-26T03:26:23;95902.75;;;11.14;100.00
75438;BME280;64015;49.392;15.582;2023-06-26T03:28:53;95905.13;;;11.20;100.00
75438;BME280;64015;49.392;15.582;2023-06-26T03:31:20;95901.69;;;11.20;100.00
75438;BME280;64015;49.392;15.582;2023-06-26T03:33:46;95904.56;;;11.23;100.00
75438;BME280;64015;49.392;15.582;2023-06-26T03:36:12;95896.91;;;11.27;100.00
75438;BME280;64015;49.392;15.582;2023-06-26T03:38:38;95900.59;;;11.31;100.00
75438;BME280;64015;49.392;15.582;2023-06-26T03:41:03;95898.22;;;11.35;100.00
75438;BME280;64015;49.392;15.582;2023-06-26T03:43:29;95897.69;;;11.38;100.00
75438;BME280;64015;49.392;15.582;2023-06-26T03:45:55;95895.03;;;11.43;100.00
75438;BME280;64015;49.392;15.582;2023-06-26T03:48:20;95896.56;;;11.54;100.00
75438;BME280;64015;49.392;15.582;2023-06-26T03:50:46;95894.47;;;11.56;100.00
75438;BME280;64015;49.392;15.582;2023-06-26T03:53:12;95891.81;;;11.56;100.00
75438;BME280;64015;49.392;15.582;2023-06-26T03:55:37;95896.53;;;11.59;100.00
75438;BME280;64015;49.392;15.582;2023-06-26T03:58:04;95897.88;;;11.62;100.00
75438;BME280;64015;49.392;15.582;2023-06-26T04:00:30;95901.31;;;11.67;100.00
75438;BME280;64015;49.392;15.582;2023-06-26T04:02:56;95900.75;;;11.75;100.00
75438;BME280;64015;49.392;15.582;2023-06-26T04:05:22;95898.63;;;11.82;100.00
75438;BME280;64015;49.392;15.582;2023-06-26T04:07:52;95902.56;;;11.85;100.00
75438;BME280;64015;49.392;15.582;2023-06-26T04:10:18;95898.31;;;11.94;100.00
75438;BME280;64015;49.392;15.582;2023-06-26T04:12:44;95903.28;;;12.01;100.00
75438;BME280;64015;49.392;15.582;2023-06-26T04:15:09;95896.91;;;12.07;100.00
75438;BME280;64015;49.392;15.582;2023-06-26T04:17:35;95895.53;;;12.14;100.00
75438;BME280;64015;49.392;15.582;2023-06-26T04:20:01;95890.75;;;12.21;100.00
75438;BME280;64015;49.392;15.582;2023-06-26T04:22:32;95893.59;;;12.30;100.00
75438;BME280;64015;49.392;15.582;2023-06-26T04:24:58;95892.19;;;12.43;100.00
75438;BME280;64015;49.392;15.582;2023-06-26T04:27:24;95894.94;;;12.61;100.00
75438;BME280;64015;49.392;15.582;2023-06-26T04:29:50;95889.91;;;12.65;100.00
75438;BME280;64015;49.392;15.582;2023-06-26T04:32:16;95899.16;;;12.67;100.00
75438;BME280;64015;49.392;15.582;2023-06-26T04:34:41;95891.41;;;12.76;100.00
75438;BME280;64015;49.392;15.582;2023-06-26T04:37:10;95900.00;;;12.92;100.00
75438;BME280;64015;49.392;15.582;2023-06-26T04:39:37;95899.97;;;12.97;100.00
75438;BME280;64015;49.392;15.582;2023-06-26T04:42:05;95891.72;;;13.03;100.00
75438;BME280;64015;49.392;15.582;2023-06-26T04:44:31;95899.09;;;13.06;100.00
75438;BME280;64015;49.392;15.582;2023-06-26T04:46:57;95895.09;;;13.14;100.00
75438;BME280;64015;49.392;15.582;2023-06-26T04:49:23;95897.13;;;13.22;100.00
75438;BME280;64015;49.392;15.582;2023-06-26T04:51:48;95895.16;;;13.33;100.00
75438;BME280;64015;49.392;15.582;2023-06-26T04:54:16;95889.19;;;13.46;100.00
75438;BME280;64015;49.392;15.582;2023-06-26T04:56:43;95899.47;;;13.53;100.00
75438;BME280;64015;49.392;15.582;2023-06-26T04:59:09;95894.53;;;13.65;100.00
75438;BME280;64015;49.392;15.582;2023-06-26T05:01:39;95895.31;;;13.89;100.00
75438;BME280;64015;49.392;15.582;2023-06-26T05:04:05;95893.75;;;14.07;100.00
75438;BME280;64015;49.392;15.582;2023-06-26T05:06:31;95893.97;;;14.10;100.00
75438;BME280;64015;49.392;15.582;2023-06-26T05:08:57;95893.91;;;14.15;100.00
75438;BME280;64015;49.392;15.582;2023-06-26T05:11:24;95884.44;;;14.28;100.00
75438;BME280;64015;49.392;15.582;2023-06-26T05:13:49;95888.00;;;14.37;100.00
75438;BME280;64015;49.392;15.582;2023-06-26T05:16:15;95888.91;;;14.51;100.00
75438;BME280;64015;49.392;15.582;2023-06-26T05:18:41;95883.50;;;14.56;100.00
75438;BME280;64015;49.392;15.582;2023-06-26T05:21:07;95881.44;;;14.72;100.00
75438;BME280;64015;49.392;15.582;2023-06-26T05:23:33;95887.84;;;14.85;100.00
75438;BME280;64015;49.392;15.582;2023-06-26T05:26:03;95893.50;;;14.97;100.00
75438;BME280;64015;49.392;15.582;2023-06-26T05:28:29;95886.72;;;15.05;100.00
75438;BME280;64015;49.392;15.582;2023-06-26T05:30:57;95884.09;;;15.18;100.00
75438;BME280;64015;49.392;15.582;2023-06-26T05:33:25;95883.03;;;15.33;100.00
75438;BME280;64015;49.392;15.582;2023-06-26T05:35:52;95885.63;;;15.38;100.00
75438;BME280;64015;49.392;15.582;2023-06-26T05:38:18;95882.34;;;15.41;100.00
75438;BME280;64015;49.392;15.582;2023-06-26T05:40:44;95887.91;;;15.58;100.00
75438;BME280;64015;49.392;15.582;2023-06-26T05:43:10;95885.25;;;15.72;100.00
75438;BME280;64015;49.392;15.582;2023-06-26T05:45:36;95883.19;;;15.83;100.00
75438;BME280;64015;49.392;15.582;2023-06-26T05:48:03;95873.78;;;15.99;100.00
75438;BME280;64015;49.392;15.582;2023-06-26T05:50:29;95878.31;;;16.12;100.00
75438;BME280;64015;49.392;15.582;2023-06-26T05:52:55;95871.06;;;16.26;100.00
75438;BME280;64015;49.392;15.582;2023-06-26T05:55:21;95873.03;;;16.57;100.00
75438;BME280;64015;49.392;15.582;2023-06-26T05:57:47;95870.03;;;16.72;100.00
75438;BME280;64015;49.392;15.582;2023-06-26T06:00:16;95866.09;;;16.69;100.00
75438;BME280;64015;49.392;15.582;2023-06-26T06:02:43;95873.25;;;16.83;100.00
75438;BME280;64015;49.392;15.582;2023-06-26T06:05:09;95868.03;;;17.00;100.00
75438;BME280;64015;49.392;15.582;2023-06-26T06:07:35;95872.66;;;17.16;100.00
75438;BME280;64015;49.392;15.582;2023-06-26T06:10:04;95863.59;;;17.26;100.00
75438;BME280;64015;49.392;15.582;2023-06-26T06:12:30;95863.03;;;17.38;100.00
75438;BME280;64015;49.392;15.582;2023-06-26T06:14:56;95861.41;;;17.59;100.00
75438;BME280;64015;49.392;15.582;2023-06-26T06:17:22;95867.84;;;17.58;100.00
75438;BME280;64015;49.392;15.582;2023-06-26T06:19:49;95863.59;;;17.57;100.00
75438;BME280;64015;49.392;15.582;2023-06-26T06:22:14;95864.75;;;17.73;99.56
75438;BME280;64015;49.392;15.582;2023-06-26T06:24:42;95861.81;;;17.92;98.69
75438;BME280;64015;49.392;15.582;2023-06-26T06:27:08;95860.44;;;18.03;98.75
75438;BME280;64015;49.392;15.582;2023-06-26T06:29:33;95860.28;;;18.17;97.81
75438;BME280;64015;49.392;15.582;2023-06-26T06:31:59;95860.31;;;18.34;97.28
75438;BME280;64015;49.392;15.582;2023-06-26T06:34:26;95863.78;;;18.43;95.93
75438;BME280;64015;49.392;15.582;2023-06-26T06:36:52;95862.38;;;18.63;95.56
75438;BME280;64015;49.392;15.582;2023-06-26T06:39:18;95853.72;;;18.75;92.79
75438;BME280;64015;49.392;15.582;2023-06-26T06:41:43;95850.75;;;18.76;90.08
75438;BME280;64015;49.392;15.582;2023-06-26T06:44:12;95859.81;;;18.92;89.93
75438;BME280;64015;49.392;15.582;2023-06-26T06:46:37;95854.25;;;19.23;87.25
75438;BME280;64015;49.392;15.582;2023-06-26T06:49:03;95858.91;;;19.44;84.90
75438;BME280;64015;49.392;15.582;2023-06-26T06:51:29;95854.34;;;19.44;83.46
75438;BME280;64015;49.392;15.582;2023-06-26T06:53:55;95866.00;;;19.48;84.97
75438;BME280;64015;49.392;15.582;2023-06-26T06:56:20;95859.00;;;19.64;83.66
75438;BME280;64015;49.392;15.582;2023-06-26T06:58:46;95852.38;;;19.70;84.15
75438;BME280;64015;49.392;15.582;2023-06-26T07:01:13;95861.34;;;19.95;81.41
75438;BME280;64015;49.392;15.582;2023-06-26T07:03:39;95858.03;;;19.98;81.97
75438;BME280;64015;49.392;15.582;2023-06-26T07:06:05;95859.22;;;20.09;79.93
75438;BME280;64015;49.392;15.582;2023-06-26T07:08:31;95852.09;;;20.13;79.34
75438;BME280;64015;49.392;15.582;2023-06-26T07:10:57;95846.09;;;20.17;79.42
75438;BME280;64015;49.392;15.582;2023-06-26T07:13:23;95845.50;;;20.32;79.27
75438;BME280;64015;49.392;15.582;2023-06-26T07:15:49;95856.50;;;20.39;81.39
75438;BME280;64015;49.392;15.582;2023-06-26T07:18:15;95841.59;;;20.50;78.02
75438;BME280;64015;49.392;15.582;2023-06-26T07:20:41;95843.03;;;20.68;76.70
75438;BME280;64015;49.392;15.582;2023-06-26T07:23:08;95849.16;;;20.69;75.06
75438;BME280;64015;49.392;15.582;2023-06-26T07:25:34;95834.50;;;20.87;71.67
75438;BME280;64015;49.392;15.582;2023-06-26T07:28:00;95847.81;;;20.96;70.41
75438;BME280;64015;49.392;15.582;2023-06-26T07:30:26;95837.34;;;21.03;72.06
75438;BME280;64015;49.392;15.582;2023-06-26T07:32:52;95844.44;;;21.19;72.32
75438;BME280;64015;49.392;15.582;2023-06-26T07:35:18;95836.19;;;21.25;67.15
75438;BME280;64015;49.392;15.582;2023-06-26T07:37:44;95836.75;;;21.30;67.15
75438;BME280;64015;49.392;15.582;2023-06-26T07:40:10;95836.31;;;21.40;65.30
75438;BME280;64015;49.392;15.582;2023-06-26T07:42:36;95835.41;;;21.36;66.30
75438;BME280;64015;49.392;15.582;2023-06-26T07:45:03;95839.44;;;21.42;67.17
75438;BME280;64015;49.392;15.582;2023-06-26T07:47:36;95824.94;;;21.68;63.78
75438;BME280;64015;49.392;15.582;2023-06-26T07:50:02;95821.09;;;21.81;61.03
75438;BME280;64015;49.392;15.582;2023-06-26T07:52:29;95825.13;;;21.99;63.34
75438;BME280;64015;49.392;15.582;2023-06-26T07:54:56;95818.19;;;22.10;63.27
75438;BME280;64015;49.392;15.582;2023-06-26T07:57:27;95821.19;;;22.21;62.69
75438;BME280;64015;49.392;15.582;2023-06-26T07:59:53;95818.91;;;22.35;61.17
75438;BME280;64015;49.392;15.582;2023-06-26T08:02:19;95816.03;;;22.56;61.15
75438;BME280;64015;49.392;15.582;2023-06-26T08:04:45;95809.09;;;22.55;59.86
75438;BME280;64015;49.392;15.582;2023-06-26T08:07:10;95817.25;;;22.58;58.59
75438;BME280;64015;49.392;15.582;2023-06-26T08:09:36;95815.34;;;22.59;59.24
75438;BME280;64015;49.392;15.582;2023-06-26T08:12:02;95819.16;;;22.58;59.15
75438;BME280;64015;49.392;15.582;2023-06-26T08:14:44;95819.47;;;22.68;56.87
75438;BME280;64015;49.392;15.582;2023-06-26T08:17:10;95817.78;;;22.76;57.61
75438;BME280;64015;49.392;15.582;2023-06-26T08:19:35;95814.31;;;22.76;57.62
75438;BME280;64015;49.392;15.582;2023-06-26T08:22:01;95803.91;;;22.62;56.87
75438;BME280;64015;49.392;15.582;2023-06-26T08:24:27;95826.75;;;22.68;57.04
75438;BME280;64015;49.392;15.582;2023-06-26T08:27:00;95815.09;;;22.76;56.60
75438;BME280;64015;49.392;15.582;2023-06-26T08:29:50;95825.16;;;22.79;56.68
75438;BME280;64015;49.392;15.582;2023-06-26T08:36:11;95812.28;;;23.16;57.86
75438;BME280;64015;49.392;15.582;2023-06-26T08:38:37;95806.84;;;23.44;57.63
75438;BME280;64015;49.392;15.582;2023-06-26T08:41:09;95823.19;;;23.51;56.41
75438;BME280;64015;49.392;15.582;2023-06-26T08:43:35;95812.72;;;23.65;55.43
75438;BME280;64015;49.392;15.582;2023-06-26T08:46:01;95809.34;;;23.68;51.67
75438;BME280;64015;49.392;15.582;2023-06-26T08:48:32;95798.47;;;23.80;54.43
75438;BME280;64015;49.392;15.582;2023-06-26T08:51:05;95803.63;;;24.05;53.92
75438;BME280;64015;49.392;15.582;2023-06-26T08:53:49;95795.44;;;24.17;53.70
75438;BME280;64015;49.392;15.582;2023-06-26T08:56:17;95795.38;;;24.33;52.69
75438;BME280;64015;49.392;15.582;2023-06-26T09:12:46;95791.50;;;25.11;45.73
75438;BME280;64015;49.392;15.582;2023-06-26T09:15:19;95793.44;;;25.10;45.35
75438;BME280;64015;49.392;15.582;2023-06-26T09:17:45;95786.28;;;25.21;44.09
75438;BME280;64015;49.392;15.582;2023-06-26T09:20:12;95785.97;;;25.26;45.50
75438;BME280;64015;49.392;15.582;2023-06-26T09:22:42;95785.81;;;25.39;44.66
75438;BME280;64015;49.392;15.582;2023-06-26T09:25:09;95791.47;;;25.30;44.00
75438;BME280;64015;49.392;15.582;2023-06-26T09:27:35;95788.75;;;25.07;44.08
75438;BME280;64015;49.392;15.582;2023-06-26T09:30:03;95790.31;;;25.08;44.58
75438;BME280;64015;49.392;15.582;2023-06-26T09:32:29;95782.69;;;25.37;45.72
75438;BME280;64015;49.392;15.582;2023-06-26T09:34:58;95779.78;;;25.72;45.13
75438;BME280;64015;49.392;15.582;2023-06-26T09:37:25;95780.13;;;25.70;44.84
75438;BME280;64015;49.392;15.582;2023-06-26T09:39:51;95775.41;;;25.90;45.08
75438;BME280;64015;49.392;15.582;2023-06-26T09:42:19;95775.81;;;25.92;44.30
75438;BME280;64015;49.392;15.582;2023-06-26T09:44:48;95774.16;;;26.10;42.86
75438;BME280;64015;49.392;15.582;2023-06-26T09:47:21;95768.09;;;26.20;42.90
75438;BME280;64015;49.392;15.582;2023-06-26T09:49:47;95769.66;;;26.21;44.23
75438;BME280;64015;49.392;15.582;2023-06-26T09:52:14;95756.75;;;26.37;43.74
75438;BME280;64015;49.392;15.582;2023-06-26T09:54:45;95773.06;;;26.45;42.47
75438;BME280;64015;49.392;15.582;2023-06-26T09:57:13;95776.53;;;26.45;41.32
75438;BME280;64015;49.392;15.582;2023-06-26T10:00:11;95765.16;;;26.32;40.68
75438;BME280;64015;49.392;15.582;2023-06-26T10:02:37;95762.22;;;26.41;43.31
75438;BME280;64015;49.392;15.582;2023-06-26T10:05:03;95761.63;;;26.58;40.58
75438;BME280;64015;49.392;15.582;2023-06-26T10:07:29;95752.19;;;26.45;42.62
75438;BME280;64015;49.392;15.582;2023-06-26T10:09:56;95756.41;;;26.76;42.24
75438;BME280;64015;49.392;15.582;2023-06-26T10:12:30;95752.97;;;27.20;41.18
75438;BME280;64015;49.392;15.582;2023-06-26T10:14:59;95755.22;;;27.58;40.77
75438;BME280;64015;49.392;15.582;2023-06-26T10:17:50;95752.06;;;28.07;39.12
75438;BME280;64015;49.392;15.582;2023-06-26T10:20:17;95745.84;;;28.10;38.90
75438;BME280;64015;49.392;15.582;2023-06-26T10:22:45;95752.34;;;27.88;37.84
75438;BME280;64015;49.392;15.582;2023-06-26T10:25:16;95747.59;;;27.71;39.30
75438;BME280;64015;49.392;15.582;2023-06-26T10:27:54;95744.50;;;27.76;39.63
75438;BME280;64015;49.392;15.582;2023-06-26T10:30:28;95739.50;;;27.78;40.31
75438;BME280;64015;49.392;15.582;2023-06-26T10:35:44;95733.22;;;27.67;38.38
75438;BME280;64015;49.392;15.582;2023-06-26T10:38:10;95742.09;;;27.64;38.70
75438;BME280;64015;49.392;15.582;2023-06-26T10:40:41;95740.69;;;27.33;40.46
75438;BME280;64015;49.392;15.582;2023-06-26T10:43:09;95729.78;;;27.22;40.52
75438;BME280;64015;49.392;15.582;2023-06-26T10:45:36;95732.19;;;27.34;39.94
75438;BME280;64015;49.392;15.582;2023-06-26T10:48:02;95726.25;;;27.66;39.98
75438;BME280;64015;49.392;15.582;2023-06-26T10:50:31;95723.56;;;27.69;38.84
75438;BME280;64015;49.392;15.582;2023-06-26T10:56:01;95717.56;;;28.11;39.12
75438;BME280;64015;49.392;15.582;2023-06-26T11:03:38;95720.44;;;28.40;38.34
75438;BME280;64015;49.392;15.582;2023-06-26T11:06:10;95719.72;;;28.64;38.13
75438;BME280;64015;49.392;15.582;2023-06-26T11:09:14;95716.81;;;28.07;37.59
75438;BME280;64015;49.392;15.582;2023-06-26T11:14:23;95724.50;;;27.98;37.92
75438;BME280;64015;49.392;15.582;2023-06-26T11:16:49;95724.09;;;28.00;37.85
75438;BME280;64015;49.392;15.582;2023-06-26T11:19:17;95719.75;;;27.81;38.02
75438;BME280;64015;49.392;15.582;2023-06-26T11:21:43;95722.84;;;27.83;38.71
75438;BME280;64015;49.392;15.582;2023-06-26T11:24:11;95719.34;;;27.75;38.21
75438;BME280;64015;49.392;15.582;2023-06-26T11:26:40;95716.22;;;27.73;39.67
75438;BME280;64015;49.392;15.582;2023-06-26T11:29:06;95711.59;;;27.81;39.39
75438;BME280;64015;49.392;15.582;2023-06-26T11:31:34;95716.75;;;28.00;38.53
75438;BME280;64015;49.392;15.582;2023-06-26T11:34:08;95711.41;;;28.18;38.28
75438;BME280;64015;49.392;15.582;2023-06-26T11:36:35;95712.72;;;28.56;38.04
75438;BME280;64015;49.392;15.582;2023-06-26T11:39:04;95702.72;;;29.03;35.84
75438;BME280;64015;49.392;15.582;2023-06-26T11:41:38;95694.97;;;29.58;35.91
75438;BME280;64015;49.392;15.582;2023-06-26T11:44:08;95694.53;;;29.84;36.14
75438;BME280;64015;49.392;15.582;2023-06-26T11:46:37;95688.66;;;30.84;34.63
75438;BME280;64015;49.392;15.582;2023-06-26T11:49:07;95688.00;;;31.65;31.39
75438;BME280;64015;49.392;15.582;2023-06-26T11:51:33;95696.13;;;31.72;31.01
75438;BME280;64015;49.392;15.582;2023-06-26T11:54:01;95687.56;;;31.70;30.57
75438;BME280;64015;49.392;15.582;2023-06-26T11:56:28;95695.44;;;31.99;29.79
75438;BME280;64015;49.392;15.582;2023-06-26T11:59:05;95692.88;;;31.84;31.22
75438;BME280;64015;49.392;15.582;2023-06-26T12:04:02;95683.13;;;32.21;30.54
75438;BME280;64015;49.392;15.582;2023-06-26T12:06:31;95675.66;;;33.99;27.99
75438;BME280;64015;49.392;15.582;2023-06-26T12:09:01;95669.31;;;34.77;26.51
75438;BME280;64015;49.392;15.582;2023-06-26T12:11:30;95684.34;;;34.53;26.68
75438;BME280;64015;49.392;15.582;2023-06-26T12:13:57;95675.34;;;34.13;26.84
75438;BME280;64015;49.392;15.582;2023-06-26T12:16:23;95668.06;;;33.87;26.77
75438;BME280;64015;49.392;15.582;2023-06-26T12:18:48;95667.19;;;33.00;29.04
75438;BME280;64015;49.392;15.582;2023-06-26T12:24:16;95671.66;;;31.65;29.79
75438;BME280;64015;49.392;15.582;2023-06-26T12:26:43;95674.06;;;30.49;32.14
75438;BME280;64015;49.392;15.582;2023-06-26T12:29:11;95663.63;;;32.49;29.69
75438;BME280;64015;49.392;15.582;2023-06-26T12:31:42;95658.03;;;33.80;28.47
75438;BME280;64015;49.392;15.582;2023-06-26T12:34:13;95661.31;;;34.11;27.21
75438;BME280;64015;49.392;15.582;2023-06-26T12:39:50;95654.13;;;33.58;26.38
75438;BME280;64015;49.392;15.582;2023-06-26T12:42:24;95661.03;;;33.86;27.28
75438;BME280;64015;49.392;15.582;2023-06-26T12:44:51;95659.66;;;32.54;27.79
75438;BME280;64015;49.392;15.582;2023-06-26T12:47:19;95665.47;;;33.56;26.33
75438;BME280;64015;49.392;15.582;2023-06-26T12:49:52;95662.09;;;32.18;28.02
75438;BME280;64015;49.392;15.582;2023-06-26T12:52:19;95654.78;;;32.69;27.88
75438;BME280;64015;49.392;15.582;2023-06-26T12:54:45;95657.31;;;32.83;26.83
75438;BME280;64015;49.392;15.582;2023-06-26T12:57:13;95651.75;;;32.90;26.53
75438;BME280;64015;49.392;15.582;2023-06-26T12:59:42;95648.34;;;31.95;27.80
75438;BME280;64015;49.392;15.582;2023-06-26T13:02:09;95650.81;;;31.82;28.45
75438;BME280;64015;49.392;15.582;2023-06-26T13:04:37;95655.38;;;31.06;29.15
75438;BME280;64015;49.392;15.582;2023-06-26T13:07:06;95643.72;;;31.06;30.77
75438;BME280;64015;49.392;15.582;2023-06-26T13:09:35;95640.53;;;30.66;30.86
75438;BME280;64015;49.392;15.582;2023-06-26T13:12:03;95631.94;;;29.95;31.26
75438;BME280;64015;49.392;15.582;2023-06-26T13:14:30;95640.09;;;30.02;31.77
75438;BME280;64015;49.392;15.582;2023-06-26T13:16:55;95628.34;;;30.19;32.00
75438;BME280;64015;49.392;15.582;2023-06-26T13:19:21;95628.03;;;30.03;31.90
75438;BME280;64015;49.392;15.582;2023-06-26T13:21:47;95622.56;;;30.10;32.04
75438;BME280;64015;49.392;15.582;2023-06-26T13:24:13;95628.25;;;30.37;31.16
75438;BME280;64015;49.392;15.582;2023-06-26T13:26:38;95624.75;;;31.40;29.93
75438;BME280;64015;49.392;15.582;2023-06-26T13:29:05;95613.28;;;33.90;26.00
75438;BME280;64015;49.392;15.582;2023-06-26T13:31:31;95606.69;;;35.70;23.71